VILK/LKO METAR and TAF weather

Enter ICAO airport designator
Station Type Date Time Source
VILK METAR 2020/03/29 14:00 UTC NOAA

VILK 291400Z 25004KT 4000 NSC 25/14 Q1010 NOSIG


Station Type Date Time Source
VILK Decoded METAR 2020/03/29 14:00 UTC NOAA

Lucknow / Amausi, India (VILK) 26-45N 080-53E 128M
Mar 29, 2020 - 10:00 AM EDT / 2020.03.29 1400 UTC
Wind: from the WSW (250 degrees) at 5 MPH (4 KT):0
Visibility: 2 mile(s):0
Temperature: 77 F (25 C)
Dew Point: 57 F (14 C)
Relative Humidity: 50%
Pressure (altimeter): 29.83 in. Hg (1010 hPa)
ob: VILK 291400Z 25004KT 4000 NSC 25/14 Q1010 NOSIG
cycle: 14

Station Type Date Time Source
VILK TAF 2020/03/29 12:21 UTC NOAA

TAF VILK 291100Z 2912/3018 VRB03KT 3000 HZ NSC
BECMG 3004/3006 5000 HZ
BECMG 3011/3013 3000 HZ

Example: see airport list